Time;durP1;ratioP1;P1;durP2;ratioP2;P2;SDS_P1;SDS_P2;PMS_P1;PMS_P2;Temp;Humidity;BMP_temperature;BMP_pressure;BME280_temperature;BME280_humidity;BME280_pressure;Samples;Min_cycle;Max_cycle;Signal;HPM_P1;HPM_P2
2021/04/21 00:00:32;;;;;;;0.60;0.60;;;;;;;6.98;66.28;96782.78;29991;252;6000;-56
2021/04/21 00:01:05;;;;;;;0.60;0.60;;;;;;;6.98;66.36;96780.06;29990;209;6005;-57
2021/04/21 00:01:43;;;;;;;0.60;0.60;;;;;;;6.96;66.29;96776.84;29991;202;6000;-57
2021/04/21 00:02:19;;;;;;;0.60;0.60;;;;;;;6.96;66.41;96774.94;29991;202;6004;-57
2021/04/21 00:02:52;;;;;;;0.60;0.60;;;;;;;6.96;66.54;96777.66;29988;227;7000;-56
2021/04/21 00:03:23;;;;;;;0.60;0.60;;;;;;;6.94;66.41;96777.09;29991;239;6004;-57
2021/04/21 00:03:55;;;;;;;0.60;0.60;;;;;;;6.96;66.26;96772.25;29991;245;6000;-56
2021/04/21 00:04:28;;;;;;;0.60;0.60;;;;;;;6.96;66.17;96776.84;29991;198;6004;-57
2021/04/21 00:05:01;;;;;;;0.60;0.60;;;;;;;6.97;66.18;96781.97;29991;248;6000;-56
2021/04/21 00:05:32;;;;;;;0.60;0.60;;;;;;;6.95;66.49;96775.22;29990;214;6996;-57
2021/04/21 00:06:07;;;;;;;0.60;0.60;;;;;;;6.99;66.19;96776.28;29989;282;7000;-56
2021/04/21 00:06:39;;;;;;;0.60;0.60;;;;;;;6.98;66.06;96774.69;29991;206;6005;-56
2021/04/21 00:07:14;;;;;;;0.60;0.60;;;;;;;6.98;66.07;96774.69;29991;242;6000;-57
2021/04/21 00:07:47;;;;;;;0.60;0.60;;;;;;;7.01;66.03;96787.63;29991;230;6005;-56
2021/04/21 00:08:19;;;;;;;0.60;0.60;;;;;;;6.98;66.18;96772.78;29991;202;6000;-56
2021/04/21 00:08:50;;;;;;;0.60;0.60;;;;;;;7.03;66.05;96783.56;29991;209;6005;-56
2021/04/21 00:09:22;;;;;;;0.60;0.60;;;;;;;7.04;66.08;96779.00;29991;207;6000;-55
2021/04/21 00:09:54;;;;;;;0.60;0.60;;;;;;;7.05;66.04;96780.59;29991;235;6004;-56
2021/04/21 00:10:26;;;;;;;0.60;0.60;;;;;;;7.06;66.04;96771.44;29991;207;6000;-56
2021/04/21 00:10:59;;;;;;;0.60;0.60;;;;;;;7.10;65.93;96780.59;29989;245;7004;-57
2021/04/21 00:11:32;;;;;;;0.60;0.60;;;;;;;7.10;65.74;96775.19;29991;231;6000;-55
2021/04/21 00:12:04;;;;;;;0.60;0.60;;;;;;;7.14;65.54;96778.97;29991;245;6004;-55
2021/04/21 00:12:35;;;;;;;0.60;0.60;;;;;;;7.17;65.32;96778.44;29990;211;6000;-56
2021/04/21 00:13:10;;;;;;;0.60;0.60;;;;;;;7.21;65.54;96774.09;29991;202;6004;-56
2021/04/21 00:13:43;;;;;;;0.60;0.60;;;;;;;7.23;65.23;96777.34;29990;227;6006;-57
2021/04/21 00:14:18;;;;;;;0.60;0.60;;;;;;;7.21;65.21;96767.91;29991;240;6005;-55
2021/04/21 00:14:53;;;;;;;0.60;0.60;;;;;;;7.24;65.08;96770.88;29991;197;6000;-57
2021/04/21 00:15:24;;;;;;;0.60;0.60;;;;;;;7.24;64.97;96768.16;29991;256;6005;-55
2021/04/21 00:15:56;;;;;;;0.60;0.60;;;;;;;7.23;64.99;96771.13;29991;264;6000;-55
2021/04/21 00:16:28;;;;;;;0.60;0.60;;;;;;;7.21;65.08;96768.72;29989;247;7005;-56
2021/04/21 00:17:02;;;;;;;0.50;0.50;;;;;;;7.23;65.39;96771.94;29991;266;6000;-55
2021/04/21 00:17:37;;;;;;;0.60;0.60;;;;;;;7.20;65.19;96767.09;29991;206;6004;-54
2021/04/21 00:18:09;;;;;;;0.60;0.60;;;;;;;7.20;65.17;96767.09;29990;298;6000;-55
2021/04/21 00:18:43;;;;;;;0.60;0.60;;;;;;;7.20;65.24;96766.28;29991;231;6004;-55
2021/04/21 00:19:18;;;;;;;0.60;0.60;;;;;;;7.20;65.13;96766.28;29991;203;6000;-57
2021/04/21 00:19:52;;;;;;;0.60;0.60;;;;;;;7.19;65.15;96767.38;29991;218;6004;-56
2021/04/21 00:20:24;;;;;;;0.60;0.60;;;;;;;7.17;65.12;96762.25;29991;273;6000;-56
2021/04/21 00:21:01;;;;;;;0.60;0.60;;;;;;;7.20;65.19;96771.69;29991;199;6004;-56
2021/04/21 00:21:33;;;;;;;0.60;0.60;;;;;;;7.21;65.21;96766.00;29989;211;7000;-57
2021/04/21 00:22:08;;;;;;;0.60;0.60;;;;;;;7.19;65.07;96764.66;29991;219;6017;-56
2021/04/21 00:22:40;;;;;;;0.60;0.60;;;;;;;7.21;65.37;96763.31;29990;252;6000;-56
2021/04/21 00:23:15;;;;;;;0.60;0.60;;;;;;;7.18;65.36;96761.16;29989;241;7005;-57
2021/04/21 00:23:47;;;;;;;0.60;0.60;;;;;;;7.22;65.31;96764.94;29991;200;6000;-56
2021/04/21 00:24:19;;;;;;;0.60;0.60;;;;;;;7.21;65.32;96763.31;29991;197;6004;-57
2021/04/21 00:24:52;;;;;;;0.60;0.60;;;;;;;7.22;65.06;96764.94;29991;200;6006;-56
2021/04/21 00:25:27;;;;;;;0.60;0.60;;;;;;;7.23;65.31;96766.53;29991;210;6004;-57
2021/04/21 00:26:00;;;;;;;0.60;0.60;;;;;;;7.24;65.34;96761.97;29990;245;6000;-57
2021/04/21 00:26:32;;;;;;;0.60;0.60;;;;;;;7.23;65.31;96761.16;29989;221;7004;-56
2021/04/21 00:27:05;;;;;;;0.60;0.60;;;;;;;7.24;65.17;96765.47;29991;248;6000;-56
2021/04/21 00:27:36;;;;;;;0.60;0.60;;;;;;;7.25;65.12;96769.78;29991;252;6004;-57
2021/04/21 00:28:08;;;;;;;0.60;0.60;;;;;;;7.25;64.86;96764.38;29990;254;6000;-56
2021/04/21 00:28:41;;;;;;;0.60;0.60;;;;;;;7.25;65.18;96759.00;29991;218;6004;-57
2021/04/21 00:29:14;;;;;;;0.60;0.60;;;;;;;7.25;65.12;96759.00;29991;225;6000;-55
2021/04/21 00:29:51;;;;;;;0.60;0.60;;;;;;;7.27;65.18;96759.53;29991;263;6005;-55
2021/04/21 00:30:27;;;;;;;0.60;0.60;;;;;;;7.28;65.10;96753.00;29990;239;6000;-55
2021/04/21 00:31:04;;;;;;;0.60;0.60;;;;;;;7.28;65.00;96769.22;29991;214;6005;-54
2021/04/21 00:31:35;;;;;;;0.60;0.60;;;;;;;7.28;65.01;96757.59;29991;228;6000;-58
2021/04/21 00:32:08;;;;;;;0.60;0.60;;;;;;;7.27;65.08;96756.00;29991;244;6004;-56
2021/04/21 00:32:47;;;;;;;0.60;0.60;;;;;;;7.27;65.25;96756.81;29990;259;6000;-56
2021/04/21 00:33:19;;;;;;;0.60;0.60;;;;;;;7.23;64.86;96758.44;29991;204;6004;-56
2021/04/21 00:33:58;;;;;;;0.60;0.60;;;;;;;7.23;65.06;96758.44;29991;208;6000;-55
2021/04/21 00:34:32;;;;;;;0.60;0.60;;;;;;;7.18;64.87;96753.06;29991;209;6004;-58
2021/04/21 00:35:04;;;;;;;0.60;0.60;;;;;;;7.22;65.24;96756.03;29990;211;6000;-56
2021/04/21 00:35:39;;;;;;;0.60;0.60;;;;;;;7.20;65.08;96756.31;29991;212;6004;-56
2021/04/21 00:36:13;;;;;;;0.60;0.60;;;;;;;7.20;65.12;96761.69;29991;241;6000;-57
2021/04/21 00:36:51;;;;;;;0.60;0.60;;;;;;;7.19;65.27;96754.69;29991;219;6005;-56
2021/04/21 00:37:29;;;;;;;0.60;0.60;;;;;;;7.11;65.30;96741.75;29991;217;6000;-56
2021/04/21 00:38:04;;;;;;;0.60;0.60;;;;;;;7.15;65.34;96756.31;29991;223;6005;-56
2021/04/21 00:38:36;;;;;;;0.60;0.60;;;;;;;7.13;65.33;96761.16;29991;250;6000;-56
2021/04/21 00:39:09;;;;;;;0.60;0.60;;;;;;;7.13;65.49;96754.97;29991;203;6005;-56
2021/04/21 00:39:42;;;;;;;0.60;0.60;;;;;;;7.11;65.61;96763.34;29991;269;6000;-56
2021/04/21 00:40:18;;;;;;;0.60;0.60;;;;;;;7.10;65.42;96755.50;29990;202;6004;-56
2021/04/21 00:41:10;;;;;;;0.60;0.60;;;;;;;7.09;65.61;96760.09;29990;205;6000;-55
2021/04/21 00:41:54;;;;;;;0.60;0.60;;;;;;;7.08;65.71;96753.09;29990;239;6004;-55
2021/04/21 00:42:35;;;;;;;0.60;0.60;;;;;;;7.04;65.66;96757.41;29990;221;6000;-56
2021/04/21 00:43:28;;;;;;;0.70;0.70;;;;;;;7.06;65.75;96766.03;29991;232;6004;-56
2021/04/21 00:44:23;;;;;;;0.60;0.60;;;;;;;7.04;65.80;96760.09;29990;231;6000;-57
2021/04/21 00:45:13;;;;;;;0.60;0.60;;;;;;;7.04;65.90;96757.41;29991;281;6005;-57
2021/04/21 00:45:50;;;;;;;0.70;0.70;;;;;;;7.03;66.10;96755.78;29991;257;6000;-57
2021/04/21 00:46:38;;;;;;;0.60;0.60;;;;;;;7.00;65.91;96750.94;29991;215;6004;-55
2021/04/21 00:47:15;;;;;;;0.60;0.60;;;;;;;6.99;66.01;96747.44;29991;278;6000;-55
2021/04/21 00:48:09;;;;;;;0.60;0.60;;;;;;;7.05;65.88;96749.03;29989;275;6004;-55
2021/04/21 00:49:19;;;;;;;0.60;0.60;;;;;;;7.05;65.88;96748.22;29991;202;6000;-55
2021/04/21 00:50:14;;;;;;;0.60;0.60;;;;;;;7.05;65.82;96753.63;29991;220;6000;-57
2021/04/21 00:50:58;;;;;;;0.60;0.60;;;;;;;7.04;65.82;96746.63;29991;235;6000;-55
2021/04/21 00:51:50;;;;;;;0.60;0.60;;;;;;;7.05;65.75;96750.94;29991;250;6005;-55
2021/04/21 00:52:46;;;;;;;0.60;0.60;;;;;;;7.02;65.72;96744.19;29990;261;6000;-55
2021/04/21 00:53:42;;;;;;;0.60;0.60;;;;;;;7.01;65.74;96752.56;29990;333;6005;-55
2021/04/21 00:54:49;;;;;;;0.60;0.60;;;;;;;6.99;65.78;96749.31;29991;241;6000;-57
2021/04/21 00:55:39;;;;;;;0.60;0.60;;;;;;;6.97;65.94;96746.09;29990;209;6004;-57
2021/04/21 00:56:28;;;;;;;0.60;0.60;;;;;;;6.95;65.94;96748.25;29990;215;6000;-55
2021/04/21 00:57:23;;;;;;;0.60;0.60;;;;;;;6.93;66.06;96745.81;29991;250;6004;-56
2021/04/21 00:58:23;;;;;;;0.60;0.60;;;;;;;6.93;66.30;96747.75;29991;270;6000;-57
2021/04/21 00:59:19;;;;;;;0.60;0.60;;;;;;;6.91;66.37;96747.19;29990;361;6005;-57
2021/04/21 01:00:10;;;;;;;0.60;0.60;;;;;;;6.91;66.55;96752.59;29990;230;6000;-56
2021/04/21 01:00:44;;;;;;;0.70;0.70;;;;;;;6.91;66.64;96750.72;29991;208;6005;-55
2021/04/21 01:01:16;;;;;;;0.70;0.70;;;;;;;6.93;66.63;96750.44;29991;208;6000;-55
2021/04/21 01:01:47;;;;;;;0.60;0.60;;;;;;;6.93;66.35;96750.44;29991;206;6004;-55
2021/04/21 01:02:24;;;;;;;0.60;0.60;;;;;;;6.90;66.36;96742.88;29990;243;6000;-57
2021/04/21 01:03:17;;;;;;;0.60;0.60;;;;;;;6.93;66.45;96747.75;29990;227;6004;-56
2021/04/21 01:03:52;;;;;;;0.70;0.70;;;;;;;6.93;66.42;96745.03;29990;212;6000;-55
2021/04/21 01:04:24;;;;;;;0.70;0.70;;;;;;;6.92;66.51;96738.03;29990;221;6004;-55
2021/04/21 01:04:57;;;;;;;0.70;0.70;;;;;;;6.92;66.64;96740.72;29991;229;6000;-56
2021/04/21 01:05:33;;;;;;;0.60;0.60;;;;;;;6.91;66.44;96745.31;29991;245;6004;-56
2021/04/21 01:06:08;;;;;;;0.70;0.70;;;;;;;6.89;66.64;96743.97;29991;250;6000;-56
2021/04/21 01:06:45;;;;;;;0.60;0.60;;;;;;;6.88;66.60;96737.75;29990;206;6008;-55
2021/04/21 01:07:18;;;;;;;0.60;0.60;;;;;;;6.86;66.75;96737.22;29990;215;6000;-55
2021/04/21 01:07:52;;;;;;;0.65;0.65;;;;;;;6.86;66.67;96739.13;29991;260;6005;-57
2021/04/21 01:08:27;;;;;;;0.60;0.60;;;;;;;6.85;66.69;96737.50;29991;247;6000;-57
2021/04/21 01:09:02;;;;;;;0.60;0.60;;;;;;;6.83;66.82;96735.06;29990;212;6017;-56
2021/04/21 01:09:34;;;;;;;0.60;0.60;;;;;;;6.85;66.96;96743.69;29990;237;6000;-56
2021/04/21 01:10:06;;;;;;;0.60;0.60;;;;;;;6.86;66.78;96736.41;29990;224;6004;-55
2021/04/21 01:10:58;;;;;;;0.60;0.60;;;;;;;6.84;66.76;96738.59;29991;345;6000;-56
2021/04/21 01:11:48;;;;;;;0.70;0.70;;;;;;;6.83;67.08;96739.66;29991;321;6004;-55
2021/04/21 01:12:22;;;;;;;0.60;0.60;;;;;;;6.84;67.00;96738.59;29990;256;6000;-56
2021/04/21 01:12:54;;;;;;;0.60;0.60;;;;;;;6.84;66.99;96741.28;29990;236;6004;-56
2021/04/21 01:13:28;;;;;;;0.60;0.60;;;;;;;6.82;66.93;96732.66;29991;214;6000;-56
2021/04/21 01:14:06;;;;;;;0.65;0.65;;;;;;;6.86;66.85;96739.13;29991;276;6005;-56
2021/04/21 01:14:41;;;;;;;0.60;0.60;;;;;;;6.83;66.96;96734.25;29991;273;6000;-55
2021/04/21 01:15:14;;;;;;;0.60;0.60;;;;;;;6.84;66.93;96731.31;29990;202;6005;-57
2021/04/21 01:15:49;;;;;;;0.60;0.60;;;;;;;6.86;66.70;96741.81;29991;229;6000;-56
2021/04/21 01:16:26;;;;;;;0.60;0.60;;;;;;;6.85;66.61;96727.53;29991;198;6004;-55
2021/04/21 01:17:01;;;;;;;0.60;0.60;;;;;;;6.88;66.95;96734.25;29990;223;6000;-55
2021/04/21 01:17:34;;;;;;;0.70;0.70;;;;;;;6.88;66.92;96734.25;29991;303;6004;-56
2021/04/21 01:18:09;;;;;;;0.60;0.60;;;;;;;6.87;66.75;96732.63;29991;215;6000;-56
2021/04/21 01:18:42;;;;;;;0.65;0.65;;;;;;;6.87;66.81;96727.25;29991;221;6004;-56
2021/04/21 01:20:20;;;;;;;0.60;0.60;;;;;;;6.88;66.73;96739.66;29991;202;6000;-56
2021/04/21 01:21:04;;;;;;;0.60;0.60;;;;;;;6.85;66.81;96732.09;29989;202;6004;-55
2021/04/21 01:21:42;;;;;;;0.65;0.65;;;;;;;6.84;66.84;96734.00;29991;205;6000;-56
2021/04/21 01:22:28;;;;;;;0.60;0.60;;;;;;;6.84;66.79;96734.00;29990;205;6005;-55
2021/04/21 01:23:37;;;;;;;0.60;0.60;;;;;;;6.84;67.13;96735.88;29990;377;6000;-56
2021/04/21 01:24:41;;;;;;;0.70;0.70;;;;;;;6.83;66.93;96735.06;29991;229;6004;-55
2021/04/21 01:25:33;;;;;;;0.70;0.70;;;;;;;6.81;66.95;96731.03;29991;288;6000;-56
2021/04/21 01:26:22;;;;;;;;;;;;;;;6.80;67.11;96735.62;29997;983;6004;-56
2021/04/21 01:27:06;;;;;;;0.70;0.70;;;;;;;6.80;67.25;96729.41;29995;382;6000;-56
2021/04/21 01:27:58;;;;;;;0.70;0.70;;;;;;;6.79;67.22;96727.78;29990;230;6000;-56
2021/04/21 01:28:30;;;;;;;0.70;0.70;;;;;;;6.78;67.16;96728.88;29991;226;6005;-57
2021/04/21 01:29:04;;;;;;;0.60;0.60;;;;;;;6.75;67.28;96718.63;29990;238;6000;-56
2021/04/21 01:29:41;;;;;;;0.60;0.60;;;;;;;6.76;67.11;96733.72;29991;238;6005;-56
2021/04/21 01:30:23;;;;;;;0.60;0.60;;;;;;;6.76;67.38;96728.34;29991;205;6000;-56
2021/04/21 01:30:55;;;;;;;0.60;0.60;;;;;;;6.76;67.26;96728.34;29990;204;6004;-56
2021/04/21 01:31:30;;;;;;;0.70;0.70;;;;;;;6.76;67.68;96734.53;29990;197;6000;-56
2021/04/21 01:32:22;;;;;;;0.60;0.60;;;;;;;6.77;67.42;96729.97;29990;206;6004;-59
2021/04/21 01:32:57;;;;;;;0.70;0.70;;;;;;;6.77;67.43;96724.56;29989;380;6000;-56
2021/04/21 01:33:29;;;;;;;0.70;0.70;;;;;;;6.76;67.46;96723.75;29990;213;6004;-56
2021/04/21 01:34:04;;;;;;;0.70;0.70;;;;;;;6.76;67.44;96728.34;29991;203;6000;-55
2021/04/21 01:34:39;;;;;;;0.60;0.60;;;;;;;6.77;67.58;96728.06;29991;197;6000;-58
2021/04/21 01:35:12;;;;;;;0.60;0.60;;;;;;;6.78;67.30;96726.19;29991;238;6006;-56
2021/04/21 01:35:50;;;;;;;0.60;0.60;;;;;;;6.78;67.42;96728.88;29990;214;6005;-57
2021/04/21 01:36:25;;;;;;;0.60;0.60;;;;;;;6.78;67.30;96726.19;29990;326;6000;-58
2021/04/21 01:36:59;;;;;;;0.60;0.60;;;;;;;6.79;67.33;96728.59;29991;222;6005;-57
2021/04/21 01:37:35;;;;;;;0.60;0.60;;;;;;;6.79;67.41;96728.59;29990;207;6000;-56
2021/04/21 01:38:07;;;;;;;0.60;0.60;;;;;;;6.80;67.21;96732.09;29990;226;6004;-56
2021/04/21 01:38:39;;;;;;;0.65;0.65;;;;;;;6.79;67.45;96731.31;29990;209;6000;-56
2021/04/21 01:39:11;;;;;;;0.60;0.60;;;;;;;6.79;67.47;96730.50;29991;297;6004;-56
2021/04/21 01:39:48;;;;;;;0.60;0.60;;;;;;;6.80;67.59;96721.31;29988;319;6989;-56
2021/04/21 01:40:24;;;;;;;0.60;0.60;;;;;;;6.80;67.35;96732.91;29991;322;6004;-55
2021/04/21 01:41:03;;;;;;;0.60;0.60;;;;;;;6.80;67.11;96724.03;29991;198;6000;-56
2021/04/21 01:41:38;;;;;;;0.60;0.60;;;;;;;6.79;67.21;96722.41;29991;216;6004;-58
2021/04/21 01:42:11;;;;;;;0.60;0.60;;;;;;;6.80;67.41;96729.41;29990;199;6000;-56
2021/04/21 01:42:44;;;;;;;0.70;0.70;;;;;;;6.79;67.40;96723.22;29990;200;6004;-56
2021/04/21 01:43:42;;;;;;;0.70;0.70;;;;;;;6.76;67.39;96722.94;29991;231;6000;-56
2021/04/21 01:44:17;;;;;;;0.60;0.60;;;;;;;6.80;67.55;96724.03;29990;221;6005;-56
2021/04/21 01:44:51;;;;;;;0.70;0.70;;;;;;;6.80;67.32;96726.72;29990;200;6000;-55
2021/04/21 01:45:29;;;;;;;0.60;0.60;;;;;;;6.80;67.27;96718.63;29989;211;6005;-57
2021/04/21 01:46:03;;;;;;;0.60;0.60;;;;;;;6.81;67.40;96733.72;29991;235;6000;-56
2021/04/21 01:46:39;;;;;;;0.60;0.60;;;;;;;6.82;67.37;96725.38;29990;218;6004;-56
2021/04/21 01:47:15;;;;;;;0.65;0.65;;;;;;;6.82;67.16;96730.75;29991;237;6000;-56
2021/04/21 01:47:49;;;;;;;0.68;0.68;;;;;;;6.83;67.22;96728.88;29990;212;6004;-57
2021/04/21 01:48:22;;;;;;;0.60;0.60;;;;;;;6.82;67.18;96728.06;29990;221;6000;-56
2021/04/21 01:49:05;;;;;;;0.70;0.70;;;;;;;6.84;67.15;96735.88;29991;232;6004;-55
2021/04/21 01:49:59;;;;;;;0.60;0.60;;;;;;;6.84;67.28;96725.91;29990;212;6000;-57
2021/04/21 01:50:30;;;;;;;0.65;0.65;;;;;;;6.85;66.99;96726.72;29990;237;6005;-55
2021/04/21 01:51:11;;;;;;;0.60;0.60;;;;;;;6.86;67.05;96728.31;29991;204;6000;-55
2021/04/21 01:51:45;;;;;;;0.70;0.70;;;;;;;6.88;67.05;96728.88;29990;216;6005;-56
2021/04/21 01:52:55;;;;;;;0.60;0.60;;;;;;;6.88;66.91;96723.47;29990;197;6000;-56
2021/04/21 01:53:54;;;;;;;0.60;0.60;;;;;;;6.89;66.77;96730.47;29991;210;6004;-55
2021/04/21 01:54:29;;;;;;;0.60;0.60;;;;;;;6.89;66.85;96720.50;29990;253;6000;-56
2021/04/21 01:55:40;;;;;;;0.60;0.60;;;;;;;6.90;66.63;96724.00;29989;223;6004;-56
2021/04/21 01:56:42;;;;;;;0.60;0.60;;;;;;;6.89;66.71;96722.41;29991;280;6009;-56
2021/04/21 01:57:30;;;;;;;0.70;0.70;;;;;;;6.88;66.65;96720.78;29990;271;6000;-56
2021/04/21 01:58:36;;;;;;;0.68;0.68;;;;;;;6.87;66.76;96729.94;29991;240;6000;-57
2021/04/21 01:59:36;;;;;;;0.70;0.70;;;;;;;6.86;67.04;96723.75;29990;222;6005;-56
2021/04/21 02:00:31;;;;;;;0.60;0.60;;;;;;;6.86;66.99;96728.31;29989;283;6000;-57
2021/04/21 02:01:23;;;;;;;0.60;0.60;;;;;;;6.86;67.05;96718.34;29991;243;6004;-56
2021/04/21 02:02:23;;;;;;;0.60;0.60;;;;;;;6.87;66.80;96724.56;29990;215;6000;-57
2021/04/21 02:03:20;;;;;;;0.60;0.60;;;;;;;6.87;66.94;96727.25;29990;199;6004;-56
2021/04/21 02:03:58;;;;;;;0.60;0.60;;;;;;;6.86;66.76;96728.31;29991;227;6000;-56
2021/04/21 02:05:00;;;;;;;0.70;0.70;;;;;;;6.84;66.61;96725.09;29990;238;6004;-56
2021/04/21 02:06:27;;;;;;;0.70;0.70;;;;;;;6.82;66.77;96727.25;29990;208;6004;-56
2021/04/21 02:07:28;;;;;;;0.60;0.60;;;;;;;6.80;67.09;96730.22;29990;197;6005;-57
2021/04/21 02:08:31;;;;;;;0.70;0.70;;;;;;;6.79;67.28;96733.19;29991;211;6005;-56
2021/04/21 02:09:11;;;;;;;;;;;;;;;6.77;67.30;96732.66;29997;980;6020;-56
2021/04/21 02:10:27;;;;;;;0.70;0.70;;;;;;;6.73;67.14;96727.81;29996;202;6000;-56
2021/04/21 02:11:19;;;;;;;0.60;0.60;;;;;;;6.71;67.22;96732.66;29990;198;6000;-56
2021/04/21 02:12:06;;;;;;;0.60;0.60;;;;;;;6.70;67.34;96731.03;29990;196;6004;-56
2021/04/21 02:12:55;;;;;;;0.60;0.60;;;;;;;6.69;67.33;96729.41;29990;202;6011;-56
2021/04/21 02:14:08;;;;;;;0.60;0.60;;;;;;;6.67;67.54;96730.78;29991;227;6000;-56
2021/04/21 02:14:54;;;;;;;0.70;0.70;;;;;;;6.66;67.87;96734.53;29990;219;6000;-57
2021/04/21 02:16:10;;;;;;;0.70;0.70;;;;;;;6.65;67.67;96733.72;29990;203;6005;-58
2021/04/21 02:17:08;;;;;;;0.60;0.60;;;;;;;6.66;67.65;96729.97;29990;256;6000;-56
2021/04/21 02:18:04;;;;;;;0.60;0.60;;;;;;;6.70;67.74;96733.72;29990;205;6007;-55
2021/04/21 02:19:12;;;;;;;0.60;0.60;;;;;;;6.71;67.64;96732.66;29991;280;6004;-57
2021/04/21 02:20:27;;;;;;;0.70;0.70;;;;;;;6.77;67.56;96733.47;29990;219;6010;-55
2021/04/21 02:21:26;;;;;;;0.60;0.60;;;;;;;6.87;67.30;96729.94;29990;235;6005;-56
2021/04/21 02:22:33;;;;;;;0.60;0.60;;;;;;;6.88;67.17;96732.38;29990;204;6000;-56
2021/04/21 02:23:20;;;;;;;0.60;0.60;;;;;;;6.88;67.03;96731.56;29991;232;6005;-55
2021/04/21 02:24:17;;;;;;;0.60;0.60;;;;;;;6.88;67.13;96729.69;29990;260;6000;-56
2021/04/21 02:25:32;;;;;;;0.60;0.60;;;;;;;6.92;67.23;96738.84;29990;306;6004;-56
2021/04/21 02:26:21;;;;;;;0.70;0.70;;;;;;;6.93;67.10;96729.63;29991;232;6000;-56
2021/04/21 02:27:13;;;;;;;0.60;0.60;;;;;;;6.97;66.86;96735.28;29990;229;6010;-56
2021/04/21 02:28:22;;;;;;;0.60;0.60;;;;;;;6.97;66.95;96727.19;29990;221;6000;-56
2021/04/21 02:29:15;;;;;;;0.68;0.68;;;;;;;6.99;66.73;96739.34;29990;188;6000;-56
2021/04/21 02:29:59;;;;;;;0.70;0.70;;;;;;;7.01;66.66;96730.97;29990;224;6005;-56
2021/04/21 02:30:41;;;;;;;0.70;0.70;;;;;;;6.99;66.90;96728.56;29990;407;6000;-56
2021/04/21 02:31:44;;;;;;;0.70;0.70;;;;;;;7.01;66.94;96725.56;29990;222;6011;-57
2021/04/21 02:32:34;;;;;;;0.70;0.70;;;;;;;7.02;66.93;96728.00;29990;222;6000;-56
2021/04/21 02:33:27;;;;;;;0.70;0.70;;;;;;;7.02;66.95;96732.59;29991;212;6004;-55
2021/04/21 02:34:42;;;;;;;0.70;0.70;;;;;;;7.02;67.11;96732.59;29990;300;6000;-56
2021/04/21 02:35:23;;;;;;;0.60;0.60;;;;;;;7.02;67.07;96738.00;29990;234;6005;-56
2021/04/21 02:36:03;;;;;;;0.70;0.70;;;;;;;6.99;67.14;96727.75;29991;220;6000;-56
2021/04/21 02:37:02;;;;;;;0.70;0.70;;;;;;;7.00;67.08;96729.34;29990;209;6008;-56
2021/04/21 02:38:01;;;;;;;0.70;0.70;;;;;;;6.99;67.21;96727.75;29990;196;6000;-56
2021/04/21 02:38:40;;;;;;;0.60;0.60;;;;;;;6.98;67.39;96726.94;29990;234;6004;-57
2021/04/21 02:39:59;;;;;;;0.70;0.70;;;;;;;6.97;67.56;96728.00;29990;253;6000;-56
2021/04/21 02:40:54;;;;;;;0.60;0.60;;;;;;;6.96;67.60;96722.87;29990;237;6004;-56
2021/04/21 02:41:43;;;;;;;0.62;0.62;;;;;;;6.93;67.41;96739.66;29991;236;6000;-56
2021/04/21 02:42:38;;;;;;;0.70;0.70;;;;;;;6.89;67.51;96731.28;29990;215;6006;-56
2021/04/21 02:43:50;;;;;;;0.68;0.68;;;;;;;6.88;67.63;96731.56;29991;272;6002;-56
2021/04/21 02:44:43;;;;;;;0.70;0.70;;;;;;;6.85;67.72;96732.91;29990;202;6000;-57
2021/04/21 02:45:33;;;;;;;0.70;0.70;;;;;;;6.82;67.56;96738.03;29991;219;6000;-56
2021/04/21 02:46:32;;;;;;;0.60;0.60;;;;;;;6.79;67.56;96733.19;29991;203;6000;-56
2021/04/21 02:47:39;;;;;;;0.60;0.60;;;;;;;6.72;67.59;96728.06;29990;228;6004;-56
2021/04/21 02:48:41;;;;;;;0.68;0.68;;;;;;;6.69;67.66;96731.31;29990;211;6007;-56
2021/04/21 02:49:51;;;;;;;0.60;0.60;;;;;;;6.66;67.90;96729.97;29990;244;6004;-55
2021/04/21 02:50:30;;;;;;;0.65;0.65;;;;;;;6.64;67.98;96726.72;29990;240;6000;-57
2021/04/21 02:51:43;;;;;;;0.70;0.70;;;;;;;6.64;67.93;96728.63;29990;206;6005;-55
2021/04/21 02:52:56;;;;;;;0.60;0.60;;;;;;;6.61;68.05;96726.47;29990;222;6000;-56
2021/04/21 02:54:06;;;;;;;0.70;0.70;;;;;;;6.58;67.87;96738.63;29991;197;6004;-56
2021/04/21 02:55:05;;;;;;;0.60;0.60;;;;;;;6.56;68.17;96730.00;29991;198;6000;-56
2021/04/21 02:56:18;;;;;;;0.60;0.60;;;;;;;6.55;68.27;96725.69;29991;238;6004;-57
2021/04/21 02:57:00;;;;;;;0.60;0.60;;;;;;;6.53;68.31;96725.16;29990;383;6000;-56
2021/04/21 02:58:15;;;;;;;0.60;0.60;;;;;;;6.47;68.31;96730.81;29990;233;6004;-56
2021/04/21 02:59:08;;;;;;;0.60;0.60;;;;;;;6.47;68.39;96723.53;29990;261;6000;-56
2021/04/21 03:00:01;;;;;;;0.70;0.70;;;;;;;6.44;68.51;96725.94;29990;217;6005;-56
2021/04/21 03:01:10;;;;;;;0.70;0.70;;;;;;;6.40;68.89;96728.38;29990;231;6000;-57
2021/04/21 03:01:57;;;;;;;0.70;0.70;;;;;;;6.34;69.06;96729.44;29990;199;6000;-56
2021/04/21 03:02:37;;;;;;;0.60;0.60;;;;;;;6.28;69.14;96723.25;29991;222;6004;-56
2021/04/21 03:03:37;;;;;;;0.70;0.70;;;;;;;6.22;69.83;96728.91;29990;206;6000;-56
2021/04/21 03:04:22;;;;;;;0.68;0.68;;;;;;;6.19;69.76;96719.50;29990;220;6000;-57
2021/04/21 03:05:07;;;;;;;0.70;0.70;;;;;;;6.18;69.95;96725.16;29991;287;6004;-57
2021/04/21 03:05:45;;;;;;;0.70;0.70;;;;;;;6.18;70.01;96725.16;29991;198;6000;-56
2021/04/21 03:06:24;;;;;;;0.60;0.60;;;;;;;6.17;69.90;96726.22;29990;197;6005;-56
2021/04/21 03:06:58;;;;;;;0.60;0.60;;;;;;;6.18;69.89;96725.16;29990;240;6000;-56
2021/04/21 03:07:43;;;;;;;0.60;0.60;;;;;;;6.16;69.83;96724.59;29991;230;6005;-56
2021/04/21 03:08:52;;;;;;;0.60;0.60;;;;;;;6.14;69.90;96721.38;29990;237;6000;-55
2021/04/21 03:09:44;;;;;;;0.60;0.60;;;;;;;6.12;70.42;96726.22;29991;220;6004;-57
2021/04/21 03:10:18;;;;;;;0.70;0.70;;;;;;;6.05;70.42;96721.91;29990;226;6000;-56
2021/04/21 03:11:15;;;;;;;0.70;0.70;;;;;;;6.04;70.22;96722.97;29990;199;6004;-56
2021/04/21 03:11:47;;;;;;;0.68;0.68;;;;;;;6.03;70.30;96720.53;29990;230;6000;-56
2021/04/21 03:12:26;;;;;;;0.70;0.70;;;;;;;6.01;70.51;96717.31;29990;237;6004;-55
2021/04/21 03:13:30;;;;;;;0.60;0.60;;;;;;;5.99;70.65;96719.44;29990;220;6000;-57
2021/04/21 03:14:13;;;;;;;0.60;0.60;;;;;;;5.96;70.69;96718.09;29990;211;6005;-56
2021/04/21 03:14:51;;;;;;;0.60;0.60;;;;;;;5.97;70.88;96721.59;29990;199;6000;-57
2021/04/21 03:15:26;;;;;;;0.70;0.70;;;;;;;5.96;70.67;96719.97;29990;234;6008;-57
2021/04/21 03:16:11;;;;;;;0.68;0.68;;;;;;;5.96;70.76;96719.97;29990;309;6000;-56
2021/04/21 03:16:46;;;;;;;0.70;0.70;;;;;;;5.96;70.84;96722.69;29990;215;6008;-57
2021/04/21 03:17:18;;;;;;;0.60;0.60;;;;;;;5.95;70.90;96721.88;29990;221;6000;-57
2021/04/21 03:17:54;;;;;;;0.60;0.60;;;;;;;5.95;70.92;96724.56;29990;231;6004;-57
2021/04/21 03:18:28;;;;;;;0.60;0.60;;;;;;;5.93;71.00;96723.22;29991;222;6009;-56
2021/04/21 03:19:05;;;;;;;0.60;0.60;;;;;;;5.90;71.22;96723.75;29990;239;6004;-57
2021/04/21 03:19:45;;;;;;;0.65;0.65;;;;;;;5.87;71.31;96722.38;29990;212;6000;-55
2021/04/21 03:20:19;;;;;;;0.70;0.70;;;;;;;5.86;71.28;96728.84;29990;205;6005;-57
2021/04/21 03:21:05;;;;;;;0.70;0.70;;;;;;;5.84;71.13;96722.91;29990;218;6000;-57
2021/04/21 03:21:42;;;;;;;0.60;0.60;;;;;;;5.83;71.31;96720.50;29990;237;6005;-56
2021/04/21 03:22:15;;;;;;;0.70;0.70;;;;;;;5.81;71.15;96720.75;29990;228;6000;-56
2021/04/21 03:22:55;;;;;;;0.68;0.68;;;;;;;5.79;71.10;96720.22;29990;209;6004;-56
2021/04/21 03:23:28;;;;;;;0.70;0.70;;;;;;;5.81;71.27;96715.37;29990;209;6000;-57
2021/04/21 03:24:23;;;;;;;0.70;0.70;;;;;;;5.82;71.32;96721.56;29991;216;6004;-56
2021/04/21 03:25:13;;;;;;;0.60;0.60;;;;;;;5.85;71.42;96718.34;29990;234;6000;-56
2021/04/21 03:25:46;;;;;;;1.45;1.45;;;;;;;5.84;71.22;96720.22;29991;247;6004;-57
2021/04/21 03:26:20;;;;;;;0.70;0.70;;;;;;;5.86;71.13;96720.78;29991;237;6000;-56
2021/04/21 03:26:54;;;;;;;0.62;0.62;;;;;;;5.87;71.28;96717.00;29991;229;6004;-56
2021/04/21 03:27:32;;;;;;;0.70;0.70;;;;;;;5.88;70.98;96718.63;29990;238;6000;-56
2021/04/21 03:28:08;;;;;;;0.70;0.70;;;;;;;5.90;71.09;96721.06;29989;211;6005;-56
2021/04/21 03:28:41;;;;;;;0.70;0.70;;;;;;;5.90;71.03;96718.34;29990;282;6000;-56
2021/04/21 03:29:18;;;;;;;0.70;0.70;;;;;;;5.91;71.12;96720.78;29991;208;6005;-56
2021/04/21 03:29:50;;;;;;;0.60;0.60;;;;;;;5.93;70.97;96721.31;29990;227;6000;-56
2021/04/21 03:30:24;;;;;;;0.70;0.70;;;;;;;5.95;70.78;96723.75;29990;199;6004;-56
2021/04/21 03:31:04;;;;;;;0.65;0.65;;;;;;;5.95;70.97;96713.78;29990;325;6000;-56
2021/04/21 03:31:39;;;;;;;0.70;0.70;;;;;;;5.96;70.86;96718.09;29990;218;6004;-57
2021/04/21 03:32:18;;;;;;;0.70;0.70;;;;;;;5.95;70.82;96719.19;29991;215;6000;-56
2021/04/21 03:32:57;;;;;;;0.70;0.70;;;;;;;5.97;70.93;96713.53;29990;224;6004;-55